Time;durP1;ratioP1;P1;durP2;ratioP2;P2;SDS_P1;SDS_P2;PMS_P1;PMS_P2;Temp;Humidity;BMP_temperature;BMP_pressure;BME280_temperature;BME280_humidity;BME280_pressure;Samples;Min_cycle;Max_cycle;Signal;HPM_P1;HPM_P2
2022/09/08 00:00:54;;;;;;;20.23;15.03;;;;;;;;;;752225;184;860985;-57
2022/09/08 00:03:19;;;;;;;18.17;13.30;;;;;;;;;;754398;182;926655;-58
2022/09/08 00:05:49;;;;;;;15.63;13.80;;;;;;;;;;759567;184;919129;-59
2022/09/08 00:08:20;;;;;;;23.70;15.23;;;;;;;;;;757743;184;625397;-58
2022/09/08 00:10:41;;;;;;;19.90;14.50;;;;;;;;;;756122;184;629408;-57
2022/09/08 00:13:07;;;;;;;18.12;15.27;;;;;;;;;;749726;185;917374;-57
2022/09/08 00:15:33;;;;;;;16.13;14.33;;;;;;;;;;757351;184;887048;-57
2022/09/08 00:17:58;;;;;;;20.10;16.03;;;;;;;;;;749612;185;917388;-58
2022/09/08 00:20:24;;;;;;;15.73;13.60;;;;;;;;;;753959;184;919685;-57
2022/09/08 00:22:50;;;;;;;16.00;13.57;;;;;;;;;;758356;184;914218;-57
2022/09/08 00:25:16;;;;;;;16.57;14.10;;;;;;;;;;753340;182;915617;-57
2022/09/08 00:27:42;;;;;;;14.90;13.27;;;;;;;;;;751943;184;923515;-57
2022/09/08 00:30:08;;;;;;;17.10;14.10;;;;;;;;;;759629;185;820878;-59
2022/09/08 00:32:34;;;;;;;21.80;16.73;;;;;;;;;;751065;185;920565;-59
2022/09/08 00:35:01;;;;;;;23.20;16.10;;;;;;;;;;754515;184;920583;-59
2022/09/08 00:37:30;;;;;;;21.23;16.73;;;;;;;;;;751986;184;919298;-57
2022/09/08 00:39:53;;;;;;;20.17;16.97;;;;;;;;;;755308;184;818099;-58
2022/09/08 00:42:18;;;;;;;21.77;17.13;;;;;;;;;;756142;182;920432;-57
2022/09/08 00:44:49;;;;;;;17.37;15.30;;;;;;;;;;750747;184;918265;-58
2022/09/08 00:47:14;;;;;;;20.30;16.00;;;;;;;;;;761787;184;933307;-56
2022/09/08 00:49:40;;;;;;;18.50;16.17;;;;;;;;;;755642;184;900133;-57
2022/09/08 00:52:06;;;;;;;29.43;18.83;;;;;;;;;;753112;185;919362;-57
2022/09/08 00:54:32;;;;;;;25.07;18.80;;;;;;;;;;757927;184;918407;-58
2022/09/08 00:56:57;;;;;;;20.17;16.87;;;;;;;;;;764117;182;918975;-58
2022/09/08 00:59:24;;;;;;;21.27;17.67;;;;;;;;;;754300;184;920197;-59
2022/09/08 01:01:50;;;;;;;19.03;17.03;;;;;;;;;;752882;184;919020;-57
2022/09/08 01:04:15;;;;;;;23.47;17.30;;;;;;;;;;757088;184;919367;-57
2022/09/08 01:14:39;;;;;;;24.03;16.40;;;;;;;;;;754801;184;918055;-58
2022/09/08 01:17:08;;;;;;;22.37;17.43;;;;;;;;;;753224;183;919136;-59
2022/09/08 01:19:34;;;;;;;26.20;18.70;;;;;;;;;;755723;185;920705;-57
2022/09/08 01:22:13;;;;;;;24.87;18.60;;;;;;;;;;741284;187;879450;-59
2022/09/08 01:24:44;;;;;;;24.43;18.03;;;;;;;;;;751404;185;822249;-57
2022/09/08 01:27:11;;;;;;;25.27;17.67;;;;;;;;;;755661;184;918747;-58
2022/09/08 01:29:37;;;;;;;21.23;17.40;;;;;;;;;;757461;185;918000;-58
2022/09/08 01:32:03;;;;;;;22.60;19.43;;;;;;;;;;750886;185;916715;-59
2022/09/08 01:34:28;;;;;;;20.17;17.93;;;;;;;;;;754839;184;906546;-59
2022/09/08 01:36:54;;;;;;;22.80;17.57;;;;;;;;;;752718;184;912874;-59
2022/09/08 01:39:20;;;;;;;23.83;19.27;;;;;;;;;;757654;184;918662;-58
2022/09/08 01:41:46;;;;;;;23.73;19.60;;;;;;;;;;754384;184;884907;-60
2022/09/08 01:44:12;;;;;;;25.93;20.53;;;;;;;;;;754183;185;918394;-58
2022/09/08 01:46:38;;;;;;;24.10;20.70;;;;;;;;;;760975;184;919094;-58
2022/09/08 01:49:03;;;;;;;27.67;22.57;;;;;;;;;;755942;184;916807;-58
2022/09/08 01:51:29;;;;;;;28.77;20.90;;;;;;;;;;754575;184;916880;-59
2022/09/08 01:53:55;;;;;;;29.50;22.37;;;;;;;;;;759117;184;918591;-60
2022/09/08 01:56:21;;;;;;;24.17;21.03;;;;;;;;;;757708;184;919300;-59
2022/09/08 01:58:47;;;;;;;29.27;21.67;;;;;;;;;;752036;184;1021951;-58
2022/09/08 02:01:13;;;;;;;27.73;23.40;;;;;;;;;;752336;185;919196;-57
2022/09/08 02:03:38;;;;;;;25.27;21.70;;;;;;;;;;759777;181;818562;-58
2022/09/08 02:06:05;;;;;;;27.00;21.40;;;;;;;;;;747931;182;921355;-58
2022/09/08 02:08:30;;;;;;;22.83;18.87;;;;;;;;;;750476;184;918527;-58
2022/09/08 02:10:56;;;;;;;23.17;19.73;;;;;;;;;;759287;184;816896;-58
2022/09/08 02:13:22;;;;;;;23.57;19.63;;;;;;;;;;755648;183;917201;-59
2022/09/08 02:15:48;;;;;;;26.63;20.60;;;;;;;;;;754457;184;919128;-59
2022/09/08 02:18:14;;;;;;;35.53;21.27;;;;;;;;;;757319;181;916018;-58
2022/09/08 02:20:40;;;;;;;26.47;21.10;;;;;;;;;;754296;184;916943;-58
2022/09/08 02:23:05;;;;;;;32.20;21.03;;;;;;;;;;749719;185;920630;-58
2022/09/08 02:25:31;;;;;;;26.97;22.83;;;;;;;;;;752567;184;919409;-58
2022/09/08 02:27:57;;;;;;;26.30;22.97;;;;;;;;;;755230;182;916529;-58
2022/09/08 02:30:23;;;;;;;31.33;24.10;;;;;;;;;;752210;185;919218;-58
2022/09/08 02:32:49;;;;;;;24.67;21.07;;;;;;;;;;749334;185;917816;-58
2022/09/08 02:35:15;;;;;;;28.70;22.13;;;;;;;;;;759583;185;918517;-58
2022/09/08 02:37:41;;;;;;;49.63;22.33;;;;;;;;;;754148;184;914742;-60
2022/09/08 02:40:07;;;;;;;27.27;21.00;;;;;;;;;;752830;185;918621;-60
2022/09/08 02:42:33;;;;;;;27.83;22.10;;;;;;;;;;760836;184;919344;-59
2022/09/08 02:44:59;;;;;;;25.83;21.23;;;;;;;;;;755873;184;919152;-59
2022/09/08 02:47:25;;;;;;;31.07;22.40;;;;;;;;;;757693;184;920437;-60
2022/09/08 02:49:50;;;;;;;30.43;22.20;;;;;;;;;;751140;185;918752;-58
2022/09/08 02:52:16;;;;;;;22.80;20.30;;;;;;;;;;752736;184;918797;-58
2022/09/08 02:54:42;;;;;;;26.17;19.60;;;;;;;;;;756603;184;817195;-58
2022/09/08 02:57:08;;;;;;;22.27;19.60;;;;;;;;;;751651;185;915287;-59
2022/09/08 02:59:34;;;;;;;28.08;22.10;;;;;;;;;;758903;184;918695;-59
2022/09/08 03:02:00;;;;;;;26.40;21.50;;;;;;;;;;752098;184;919035;-58
2022/09/08 03:04:26;;;;;;;28.17;22.23;;;;;;;;;;752799;184;917596;-59
2022/09/08 03:06:51;;;;;;;29.87;23.23;;;;;;;;;;761273;184;893394;-59
2022/09/08 03:09:17;;;;;;;25.60;22.20;;;;;;;;;;754549;183;918732;-59
2022/09/08 03:11:43;;;;;;;27.73;22.20;;;;;;;;;;749409;182;919092;-58
2022/09/08 03:14:09;;;;;;;29.17;23.40;;;;;;;;;;756807;185;932156;-59
2022/09/08 03:16:35;;;;;;;33.33;24.07;;;;;;;;;;749141;184;921308;-59
2022/09/08 03:19:01;;;;;;;30.60;21.90;;;;;;;;;;751784;183;919067;-58
2022/09/08 03:21:27;;;;;;;28.03;24.60;;;;;;;;;;749879;184;920073;-58
2022/09/08 03:23:53;;;;;;;25.80;22.07;;;;;;;;;;760155;180;914463;-59
2022/09/08 03:26:18;;;;;;;27.23;23.67;;;;;;;;;;751765;184;914019;-60
2022/09/08 03:28:44;;;;;;;30.42;24.55;;;;;;;;;;752452;184;918587;-59
2022/09/08 03:31:10;;;;;;;32.15;23.38;;;;;;;;;;755956;184;816749;-60
2022/09/08 03:33:36;;;;;;;27.80;24.80;;;;;;;;;;757289;184;926630;-58
2022/09/08 03:36:02;;;;;;;28.87;22.97;;;;;;;;;;750969;184;916848;-59
2022/09/08 03:38:28;;;;;;;27.40;21.20;;;;;;;;;;758951;184;816715;-60
2022/09/08 03:40:54;;;;;;;26.20;20.90;;;;;;;;;;754191;184;817428;-58
2022/09/08 03:43:20;;;;;;;28.13;21.77;;;;;;;;;;753885;184;918475;-60
2022/09/08 03:45:46;;;;;;;25.67;20.15;;;;;;;;;;754533;185;919149;-59
2022/09/08 03:48:12;;;;;;;24.10;21.50;;;;;;;;;;760218;182;930027;-58
2022/09/08 03:50:39;;;;;;;26.20;21.00;;;;;;;;;;752241;182;920725;-59
2022/09/08 03:53:04;;;;;;;23.50;20.10;;;;;;;;;;754308;184;919560;-59
2022/09/08 03:55:31;;;;;;;22.40;18.60;;;;;;;;;;758104;185;817466;-58
2022/09/08 03:57:55;;;;;;;24.23;20.37;;;;;;;;;;756824;184;818551;-60
2022/09/08 04:00:21;;;;;;;24.02;20.20;;;;;;;;;;751145;185;819482;-59
2022/09/08 04:02:47;;;;;;;23.70;20.00;;;;;;;;;;758613;180;919096;-59
2022/09/08 04:05:13;;;;;;;25.00;20.33;;;;;;;;;;751903;184;901619;-60
2022/09/08 04:07:39;;;;;;;23.83;18.97;;;;;;;;;;753192;184;918974;-58
2022/09/08 04:10:07;;;;;;;27.20;21.40;;;;;;;;;;752666;185;917832;-59
2022/09/08 04:12:31;;;;;;;25.67;20.00;;;;;;;;;;755871;184;816952;-59
2022/09/08 04:14:57;;;;;;;25.17;19.80;;;;;;;;;;753737;184;919893;-59
2022/09/08 04:17:23;;;;;;;25.60;19.97;;;;;;;;;;747189;185;918554;-59
2022/09/08 04:19:50;;;;;;;30.80;21.60;;;;;;;;;;753124;185;919535;-59
2022/09/08 04:22:15;;;;;;;27.73;21.40;;;;;;;;;;754184;184;920590;-59
2022/09/08 04:24:41;;;;;;;24.90;21.97;;;;;;;;;;753990;184;919386;-59
2022/09/08 04:27:07;;;;;;;27.30;21.00;;;;;;;;;;753981;182;918850;-59
2022/09/08 04:29:33;;;;;;;29.80;22.00;;;;;;;;;;737321;188;920936;-60
2022/09/08 04:31:59;;;;;;;29.00;22.53;;;;;;;;;;752710;185;816266;-60
2022/09/08 04:34:25;;;;;;;29.77;21.87;;;;;;;;;;757136;184;918702;-59
2022/09/08 04:36:50;;;;;;;28.70;22.60;;;;;;;;;;758144;182;822129;-60
2022/09/08 04:39:17;;;;;;;37.92;23.85;;;;;;;;;;755687;184;916482;-58
2022/09/08 04:41:43;;;;;;;27.33;22.57;;;;;;;;;;755557;184;919210;-59
2022/09/08 04:44:08;;;;;;;28.67;21.37;;;;;;;;;;755155;184;911908;-59
2022/09/08 04:46:34;;;;;;;34.50;23.07;;;;;;;;;;752471;184;919104;-58
2022/09/08 04:49:00;;;;;;;26.57;22.60;;;;;;;;;;755804;184;922077;-60
2022/09/08 04:51:26;;;;;;;31.35;24.40;;;;;;;;;;754727;185;917158;-59
2022/09/08 04:53:52;;;;;;;34.87;28.43;;;;;;;;;;753182;184;909232;-60
2022/09/08 04:56:18;;;;;;;37.93;27.10;;;;;;;;;;751811;184;922978;-58
2022/09/08 04:58:45;;;;;;;32.93;28.57;;;;;;;;;;751903;185;920169;-59
2022/09/08 05:01:10;;;;;;;38.37;27.57;;;;;;;;;;753424;185;919592;-60
2022/09/08 05:03:36;;;;;;;35.53;29.40;;;;;;;;;;748620;185;917849;-58
2022/09/08 05:06:04;;;;;;;37.27;29.63;;;;;;;;;;757057;184;816585;-58
2022/09/08 05:08:29;;;;;;;39.40;30.30;;;;;;;;;;760681;184;712509;-60
2022/09/08 05:10:55;;;;;;;38.10;28.87;;;;;;;;;;759675;182;613653;-60
2022/09/08 05:13:21;;;;;;;34.50;27.70;;;;;;;;;;756226;184;622335;-59
2022/09/08 05:15:47;;;;;;;39.93;30.67;;;;;;;;;;758937;184;615169;-60
2022/09/08 05:18:13;;;;;;;37.53;29.40;;;;;;;;;;755830;184;628745;-59
2022/09/08 05:20:38;;;;;;;34.47;29.23;;;;;;;;;;755910;184;617771;-60
2022/09/08 05:23:05;;;;;;;33.40;28.00;;;;;;;;;;754996;185;623372;-60
2022/09/08 05:25:30;;;;;;;35.87;27.83;;;;;;;;;;752810;182;919141;-58
2022/09/08 05:27:56;;;;;;;33.13;28.07;;;;;;;;;;749625;184;918324;-58
2022/09/08 05:30:22;;;;;;;37.77;29.47;;;;;;;;;;745785;185;619377;-59
2022/09/08 05:32:48;;;;;;;38.47;29.43;;;;;;;;;;767789;182;716081;-60
2022/09/08 05:35:14;;;;;;;41.10;30.03;;;;;;;;;;751556;185;918932;-58
2022/09/08 05:37:39;;;;;;;37.50;30.50;;;;;;;;;;751320;183;920745;-59
2022/09/08 05:40:06;;;;;;;39.50;30.07;;;;;;;;;;754380;185;907431;-59
2022/09/08 05:42:32;;;;;;;38.27;29.47;;;;;;;;;;759601;184;818339;-60
2022/09/08 05:44:57;;;;;;;36.83;28.37;;;;;;;;;;753830;184;917731;-59
2022/09/08 05:47:23;;;;;;;37.10;28.80;;;;;;;;;;754876;184;918441;-60
2022/09/08 05:49:49;;;;;;;37.23;28.93;;;;;;;;;;757722;184;918778;-59
2022/09/08 05:52:15;;;;;;;32.83;28.20;;;;;;;;;;752912;184;917443;-59
2022/09/08 05:54:42;;;;;;;34.63;28.77;;;;;;;;;;760271;183;908631;-60
2022/09/08 05:57:07;;;;;;;40.17;27.10;;;;;;;;;;756091;185;910906;-59
2022/09/08 05:59:34;;;;;;;31.27;27.93;;;;;;;;;;749035;184;919104;-59
2022/09/08 06:01:59;;;;;;;36.43;27.00;;;;;;;;;;754562;184;920911;-59
2022/09/08 06:04:25;;;;;;;32.17;26.70;;;;;;;;;;758649;185;920308;-60
2022/09/08 06:06:51;;;;;;;34.33;27.50;;;;;;;;;;754289;184;918914;-59
2022/09/08 06:09:17;;;;;;;34.03;25.90;;;;;;;;;;755783;185;633636;-60
2022/09/08 06:11:43;;;;;;;33.90;26.63;;;;;;;;;;752072;185;916958;-60
2022/09/08 06:14:10;;;;;;;28.93;23.87;;;;;;;;;;754622;185;918474;-64
2022/09/08 06:16:34;;;;;;;26.77;22.97;;;;;;;;;;758314;185;798404;-59
2022/09/08 06:19:00;;;;;;;34.90;23.83;;;;;;;;;;756742;184;920856;-61
2022/09/08 06:21:27;;;;;;;36.47;27.07;;;;;;;;;;756082;184;916995;-59
2022/09/08 06:23:53;;;;;;;28.30;25.07;;;;;;;;;;753402;184;903022;-60
2022/09/08 06:26:24;;;;;;;36.45;27.10;;;;;;;;;;755442;185;918841;-61
2022/09/08 06:28:48;;;;;;;29.57;25.67;;;;;;;;;;757287;184;919448;-61
2022/09/08 06:31:14;;;;;;;29.83;24.60;;;;;;;;;;756622;184;818027;-61
2022/09/08 06:33:40;;;;;;;31.90;24.67;;;;;;;;;;752510;184;817154;-60
2022/09/08 06:36:09;;;;;;;32.05;26.83;;;;;;;;;;751387;185;919039;-61
2022/09/08 06:38:35;;;;;;;31.03;27.60;;;;;;;;;;751490;184;911253;-61
2022/09/08 06:41:00;;;;;;;30.60;26.20;;;;;;;;;;754303;184;919701;-61
2022/09/08 06:43:27;;;;;;;27.93;24.70;;;;;;;;;;753566;184;919112;-59
2022/09/08 06:45:53;;;;;;;27.60;24.63;;;;;;;;;;757833;184;919779;-61
2022/09/08 06:48:22;;;;;;;31.23;25.73;;;;;;;;;;753634;184;919050;-58
2022/09/08 06:50:50;;;;;;;34.20;27.10;;;;;;;;;;750767;184;919184;-61
2022/09/08 06:53:16;;;;;;;32.30;25.73;;;;;;;;;;758263;185;919485;-59
2022/09/08 06:55:43;;;;;;;28.63;24.00;;;;;;;;;;748402;184;914875;-62
2022/09/08 06:58:25;;;;;;;29.80;24.77;;;;;;;;;;750543;184;915416;-59
2022/09/08 07:00:52;;;;;;;30.00;24.67;;;;;;;;;;752040;184;918557;-62
2022/09/08 07:03:18;;;;;;;26.20;23.57;;;;;;;;;;751501;184;818770;-61
2022/09/08 07:05:50;;;;;;;23.90;21.40;;;;;;;;;;760715;183;918674;-59
2022/09/08 07:08:22;;;;;;;29.57;23.60;;;;;;;;;;750958;184;919416;-61
2022/09/08 07:10:48;;;;;;;31.97;21.77;;;;;;;;;;755600;184;914601;-60
2022/09/08 07:13:14;;;;;;;24.37;20.55;;;;;;;;;;752521;184;827751;-59
2022/09/08 07:15:43;;;;;;;21.73;19.23;;;;;;;;;;758319;184;916395;-60
2022/09/08 07:18:25;;;;;;;27.03;22.20;;;;;;;;;;757643;184;817218;-61
2022/09/08 07:20:51;;;;;;;26.90;21.10;;;;;;;;;;755550;182;918274;-63
2022/09/08 07:23:17;;;;;;;22.08;19.77;;;;;;;;;;756555;184;917758;-58
2022/09/08 07:25:57;;;;;;;22.73;19.77;;;;;;;;;;759026;184;910711;-61
2022/09/08 07:28:23;;;;;;;20.63;18.53;;;;;;;;;;759261;184;912696;-62
2022/09/08 07:30:49;;;;;;;20.57;18.30;;;;;;;;;;750214;185;919022;-59
2022/09/08 07:33:15;;;;;;;22.47;18.80;;;;;;;;;;750522;185;918959;-61
2022/09/08 07:35:56;;;;;;;19.20;17.33;;;;;;;;;;754868;184;918236;-59
2022/09/08 07:38:22;;;;;;;19.60;17.75;;;;;;;;;;753691;183;914889;-59
2022/09/08 07:40:48;;;;;;;20.00;17.93;;;;;;;;;;764983;181;919360;-59
2022/09/08 07:43:14;;;;;;;18.70;16.90;;;;;;;;;;754064;184;919378;-61
2022/09/08 07:45:40;;;;;;;20.58;18.48;;;;;;;;;;748812;184;918885;-62
2022/09/08 07:48:06;;;;;;;18.90;17.00;;;;;;;;;;757158;184;918058;-59
2022/09/08 07:53:11;;;;;;;19.23;17.23;;;;;;;;;;753230;184;818953;-61
2022/09/08 07:55:38;;;;;;;18.47;16.20;;;;;;;;;;753625;182;917597;-61
2022/09/08 07:58:18;;;;;;;16.60;14.90;;;;;;;;;;755680;185;814947;-61
2022/09/08 08:00:59;;;;;;;19.07;15.97;;;;;;;;;;760397;184;909191;-61
2022/09/08 08:03:31;;;;;;;15.37;13.73;;;;;;;;;;755544;185;882976;-58
2022/09/08 08:05:58;;;;;;;18.70;14.97;;;;;;;;;;756608;182;918958;-61
2022/09/08 08:08:32;;;;;;;17.50;14.87;;;;;;;;;;750440;184;920003;-61
2022/09/08 08:11:03;;;;;;;17.25;15.43;;;;;;;;;;754857;184;917842;-61
2022/09/08 08:13:43;;;;;;;15.13;13.60;;;;;;;;;;753869;184;919160;-59
2022/09/08 08:16:09;;;;;;;15.57;14.07;;;;;;;;;;750630;184;917033;-61
2022/09/08 08:18:35;;;;;;;17.60;15.77;;;;;;;;;;754868;184;917108;-60
2022/09/08 08:21:05;;;;;;;15.50;13.97;;;;;;;;;;751034;183;912896;-59
2022/09/08 08:23:30;;;;;;;15.30;13.80;;;;;;;;;;753016;184;898387;-59
2022/09/08 08:25:58;;;;;;;15.27;13.67;;;;;;;;;;756523;183;815527;-61
2022/09/08 08:28:24;;;;;;;21.60;14.60;;;;;;;;;;750432;182;918436;-61
2022/09/08 08:30:51;;;;;;;15.00;13.43;;;;;;;;;;753963;184;919021;-59
2022/09/08 08:33:16;;;;;;;15.10;13.50;;;;;;;;;;756158;184;920432;-59
2022/09/08 08:35:44;;;;;;;19.37;15.43;;;;;;;;;;752049;185;919680;-59
2022/09/08 08:38:11;;;;;;;19.23;14.03;;;;;;;;;;753796;182;918686;-61
2022/09/08 08:40:41;;;;;;;16.37;13.53;;;;;;;;;;746416;185;918958;-61
2022/09/08 08:43:10;;;;;;;15.90;14.40;;;;;;;;;;759566;184;909484;-59
2022/09/08 08:45:42;;;;;;;18.60;13.03;;;;;;;;;;748583;184;916761;-59
2022/09/08 08:48:13;;;;;;;18.23;14.50;;;;;;;;;;753948;184;919972;-61
2022/09/08 08:50:53;;;;;;;17.10;13.57;;;;;;;;;;750964;183;914402;-59
2022/09/08 08:53:34;;;;;;;15.50;13.60;;;;;;;;;;748415;184;920715;-59
2022/09/08 08:56:17;;;;;;;13.53;12.13;;;;;;;;;;754498;184;915316;-59
2022/09/08 08:58:57;;;;;;;14.80;11.37;;;;;;;;;;742637;185;918823;-59
2022/09/08 09:01:39;;;;;;;13.27;12.07;;;;;;;;;;747062;185;918791;-60
2022/09/08 09:04:11;;;;;;;14.27;12.97;;;;;;;;;;752741;185;918764;-60
2022/09/08 09:06:54;;;;;;;12.43;11.23;;;;;;;;;;755734;184;918256;-59
2022/09/08 09:09:21;;;;;;;12.83;11.63;;;;;;;;;;757121;183;913397;-61
2022/09/08 09:11:49;;;;;;;13.00;11.47;;;;;;;;;;755552;184;914876;-59
2022/09/08 09:14:15;;;;;;;14.57;12.03;;;;;;;;;;755961;184;846547;-59
2022/09/08 09:16:52;;;;;;;12.00;10.90;;;;;;;;;;752558;183;920215;-59
2022/09/08 09:19:24;;;;;;;13.07;10.40;;;;;;;;;;753947;182;919555;-60
2022/09/08 09:21:52;;;;;;;12.90;11.60;;;;;;;;;;761313;182;919048;-58
2022/09/08 09:24:21;;;;;;;12.90;11.50;;;;;;;;;;753643;184;919293;-58
2022/09/08 09:26:47;;;;;;;15.10;12.07;;;;;;;;;;751735;184;919196;-59
2022/09/08 09:29:14;;;;;;;13.73;11.70;;;;;;;;;;754510;184;879859;-60
2022/09/08 09:31:46;;;;;;;17.20;13.00;;;;;;;;;;756931;184;890661;-59
2022/09/08 09:34:11;;;;;;;15.23;10.80;;;;;;;;;;748782;184;917564;-59
2022/09/08 09:36:38;;;;;;;12.50;11.30;;;;;;;;;;751536;181;918979;-59
2022/09/08 09:39:05;;;;;;;12.10;10.97;;;;;;;;;;756920;183;920412;-59
2022/09/08 09:41:31;;;;;;;13.33;12.03;;;;;;;;;;748030;185;818836;-58
2022/09/08 09:44:02;;;;;;;11.63;10.43;;;;;;;;;;752779;185;919032;-58
2022/09/08 09:46:32;;;;;;;15.97;10.40;;;;;;;;;;757329;184;893720;-59
2022/09/08 09:49:07;;;;;;;14.20;9.23;;;;;;;;;;755656;183;816434;-59
2022/09/08 09:51:44;;;;;;;12.87;11.57;;;;;;;;;;762551;184;918533;-58
2022/09/08 09:54:25;;;;;;;12.40;10.38;;;;;;;;;;748359;185;918003;-58
2022/09/08 09:56:54;;;;;;;10.10;9.10;;;;;;;;;;753438;185;887906;-57
2022/09/08 09:59:33;;;;;;;11.57;9.70;;;;;;;;;;751888;185;941317;-58
2022/09/08 10:02:05;;;;;;;16.90;9.60;;;;;;;;;;752767;184;917754;-58
2022/09/08 10:04:45;;;;;;;11.60;9.80;;;;;;;;;;748482;185;919074;-59
2022/09/08 10:07:28;;;;;;;10.70;9.45;;;;;;;;;;748810;184;918313;-58
2022/09/08 10:09:59;;;;;;;10.20;9.20;;;;;;;;;;745662;185;919909;-58
2022/09/08 10:12:27;;;;;;;14.37;10.10;;;;;;;;;;760550;184;815488;-58
2022/09/08 10:14:55;;;;;;;10.43;8.93;;;;;;;;;;749919;185;922449;-58
2022/09/08 10:17:41;;;;;;;10.00;8.83;;;;;;;;;;749069;185;918672;-59
2022/09/08 10:20:17;;;;;;;11.33;9.33;;;;;;;;;;750681;184;817147;-59
2022/09/08 10:23:04;;;;;;;14.30;8.80;;;;;;;;;;752026;182;921627;-58
2022/09/08 10:25:44;;;;;;;13.10;9.43;;;;;;;;;;750495;184;888726;-62
2022/09/08 10:28:21;;;;;;;10.07;9.07;;;;;;;;;;758073;182;641233;-59
2022/09/08 10:30:52;;;;;;;11.07;8.93;;;;;;;;;;756249;184;918364;-58
2022/09/08 10:33:24;;;;;;;12.07;8.80;;;;;;;;;;752273;182;914405;-59
2022/09/08 10:35:50;;;;;;;11.33;9.10;;;;;;;;;;759228;184;711512;-59
2022/09/08 10:38:17;;;;;;;11.67;8.73;;;;;;;;;;761412;183;919039;-58
2022/09/08 10:40:57;;;;;;;9.93;8.90;;;;;;;;;;760189;184;627954;-58
2022/09/08 10:43:43;;;;;;;11.55;9.77;;;;;;;;;;750486;182;923885;-58
2022/09/08 10:46:29;;;;;;;11.12;9.95;;;;;;;;;;751356;184;915655;-58
2022/09/08 10:49:01;;;;;;;16.10;9.17;;;;;;;;;;758596;182;838720;-58
2022/09/08 10:51:43;;;;;;;16.43;8.97;;;;;;;;;;754239;182;913648;-59
2022/09/08 10:54:14;;;;;;;9.40;8.40;;;;;;;;;;756781;184;916699;-58
2022/09/08 10:56:40;;;;;;;10.37;8.97;;;;;;;;;;753991;182;916836;-58
2022/09/08 10:59:11;;;;;;;13.50;7.83;;;;;;;;;;751698;183;919719;-60
2022/09/08 11:01:40;;;;;;;12.67;8.87;;;;;;;;;;753961;184;918882;-58
2022/09/08 11:04:09;;;;;;;16.63;8.23;;;;;;;;;;745955;185;919472;-58
2022/09/08 11:06:39;;;;;;;8.47;7.57;;;;;;;;;;756032;180;867780;-58
2022/09/08 11:09:18;;;;;;;14.67;7.27;;;;;;;;;;761761;184;919519;-58
2022/09/08 11:11:45;;;;;;;11.47;7.53;;;;;;;;;;757795;185;920611;-58
2022/09/08 11:14:16;;;;;;;13.53;8.90;;;;;;;;;;755280;185;920903;-58
2022/09/08 11:16:45;;;;;;;10.07;7.37;;;;;;;;;;753550;185;918901;-58
2022/09/08 11:19:14;;;;;;;9.20;7.87;;;;;;;;;;761320;184;816318;-58
2022/09/08 11:21:40;;;;;;;9.80;7.40;;;;;;;;;;761044;185;816015;-58
2022/09/08 11:24:09;;;;;;;7.53;6.80;;;;;;;;;;749279;185;919759;-58
2022/09/08 11:26:41;;;;;;;8.67;5.90;;;;;;;;;;756828;183;918966;-58
2022/09/08 11:29:09;;;;;;;10.97;7.93;;;;;;;;;;755516;181;918150;-58
2022/09/08 11:31:33;;;;;;;9.63;6.53;;;;;;;;;;741339;188;817286;-59
2022/09/08 11:34:01;;;;;;;9.13;7.70;;;;;;;;;;754941;185;817611;-59
2022/09/08 11:36:38;;;;;;;11.70;7.57;;;;;;;;;;751678;184;912819;-58
2022/09/08 11:39:05;;;;;;;10.30;8.20;;;;;;;;;;749924;185;919471;-58
2022/09/08 11:41:33;;;;;;;10.37;6.50;;;;;;;;;;754309;184;782825;-57
2022/09/08 11:44:01;;;;;;;9.97;7.20;;;;;;;;;;749174;184;950026;-58
2022/09/08 11:46:38;;;;;;;9.10;6.93;;;;;;;;;;754674;184;919399;-58
2022/09/08 11:49:17;;;;;;;10.20;8.13;;;;;;;;;;747133;182;915827;-58
2022/09/08 11:51:45;;;;;;;11.60;7.20;;;;;;;;;;752569;184;918554;-58
2022/09/08 11:54:26;;;;;;;9.23;8.23;;;;;;;;;;764557;184;871734;-58
2022/09/08 11:57:03;;;;;;;11.37;7.53;;;;;;;;;;760720;184;917845;-58
2022/09/08 11:59:41;;;;;;;21.13;8.80;;;;;;;;;;754414;184;918685;-58
2022/09/08 12:02:09;;;;;;;15.47;7.83;;;;;;;;;;757733;184;920187;-59
2022/09/08 12:04:35;;;;;;;12.63;8.63;;;;;;;;;;748304;185;920610;-59
2022/09/08 12:07:18;;;;;;;10.17;9.17;;;;;;;;;;753578;184;919607;-59
2022/09/08 12:09:44;;;;;;;9.47;8.03;;;;;;;;;;750981;185;919193;-59
2022/09/08 12:12:12;;;;;;;10.30;7.47;;;;;;;;;;755343;184;864610;-58
2022/09/08 12:14:44;;;;;;;10.67;8.30;;;;;;;;;;753101;183;914470;-58
2022/09/08 12:17:10;;;;;;;8.37;7.50;;;;;;;;;;755426;184;856778;-58
2022/09/08 12:19:36;;;;;;;9.40;7.20;;;;;;;;;;752881;185;918925;-58
2022/09/08 12:22:04;;;;;;;7.77;7.07;;;;;;;;;;764291;184;918096;-58
2022/09/08 12:24:49;;;;;;;8.80;7.10;;;;;;;;;;754611;184;841707;-59
2022/09/08 12:27:17;;;;;;;9.47;7.37;;;;;;;;;;756181;183;924755;-59
2022/09/08 12:29:57;;;;;;;11.68;8.13;;;;;;;;;;753631;184;917967;-59
2022/09/08 12:32:41;;;;;;;10.13;7.27;;;;;;;;;;744328;184;869412;-58
2022/09/08 12:35:08;;;;;;;8.43;7.43;;;;;;;;;;756171;184;817735;-58
2022/09/08 12:37:51;;;;;;;9.20;6.80;;;;;;;;;;760032;184;817442;-58
2022/09/08 12:40:17;;;;;;;14.67;4.80;;;;;;;;;;752424;184;918965;-58
2022/09/08 12:42:57;;;;;;;7.63;5.30;;;;;;;;;;753737;185;809406;-58
2022/09/08 12:45:24;;;;;;;10.10;6.07;;;;;;;;;;753438;184;923370;-58
2022/09/08 12:48:05;;;;;;;9.27;5.77;;;;;;;;;;755137;184;919680;-58
2022/09/08 12:50:46;;;;;;;8.53;5.40;;;;;;;;;;753865;184;816601;-58
2022/09/08 12:53:12;;;;;;;9.37;6.60;;;;;;;;;;754975;180;919505;-58
2022/09/08 12:55:40;;;;;;;13.17;5.10;;;;;;;;;;760637;183;919171;-57
2022/09/08 12:58:06;;;;;;;11.73;6.90;;;;;;;;;;762281;184;916616;-58
2022/09/08 13:00:32;;;;;;;10.30;6.33;;;;;;;;;;759533;184;837134;-58
2022/09/08 13:03:08;;;;;;;10.20;6.67;;;;;;;;;;750042;184;919673;-58
2022/09/08 13:05:49;;;;;;;13.77;6.70;;;;;;;;;;761465;184;918694;-57
2022/09/08 13:08:21;;;;;;;11.63;6.40;;;;;;;;;;755838;184;909417;-57
2022/09/08 13:10:47;;;;;;;10.17;6.63;;;;;;;;;;756641;184;878147;-57
2022/09/08 13:13:32;;;;;;;14.00;9.57;;;;;;;;;;750837;184;817167;-58
2022/09/08 13:16:13;;;;;;;15.00;6.20;;;;;;;;;;755761;184;918862;-58
2022/09/08 13:18:39;;;;;;;9.37;6.80;;;;;;;;;;753080;182;919287;-57
2022/09/08 13:21:06;;;;;;;12.97;7.43;;;;;;;;;;753643;183;916488;-57
2022/09/08 13:23:35;;;;;;;14.97;7.47;;;;;;;;;;753628;185;916712;-58
2022/09/08 13:26:12;;;;;;;14.77;7.50;;;;;;;;;;756035;183;916505;-57
2022/09/08 13:28:38;;;;;;;9.40;8.17;;;;;;;;;;754520;183;918712;-59
2022/09/08 13:31:05;;;;;;;18.43;7.90;;;;;;;;;;751761;184;917013;-58
2022/09/08 13:33:37;;;;;;;11.27;7.07;;;;;;;;;;750672;185;918874;-57
2022/09/08 13:36:04;;;;;;;11.70;6.80;;;;;;;;;;747733;186;918723;-58
2022/09/08 13:38:31;;;;;;;11.60;8.07;;;;;;;;;;748613;185;918230;-58
2022/09/08 13:41:03;;;;;;;9.90;7.23;;;;;;;;;;749595;185;916910;-58
2022/09/08 13:43:46;;;;;;;9.33;7.93;;;;;;;;;;753559;182;919355;-57
2022/09/08 13:46:15;;;;;;;12.40;8.43;;;;;;;;;;744755;185;920105;-58
2022/09/08 13:48:56;;;;;;;13.10;8.37;;;;;;;;;;757745;184;919176;-58
2022/09/08 13:51:27;;;;;;;17.33;8.50;;;;;;;;;;762387;184;918561;-59
2022/09/08 13:54:08;;;;;;;10.63;8.10;;;;;;;;;;752499;184;918687;-57
2022/09/08 13:56:40;;;;;;;17.63;8.07;;;;;;;;;;746697;184;919710;-57
2022/09/08 13:59:11;;;;;;;20.37;10.87;;;;;;;;;;751806;185;919789;-57
2022/09/08 14:01:37;;;;;;;20.17;12.60;;;;;;;;;;755280;184;918678;-58
2022/09/08 14:04:05;;;;;;;21.70;10.10;;;;;;;;;;756248;184;782698;-57
2022/09/08 14:06:35;;;;;;;10.40;9.30;;;;;;;;;;751793;183;919484;-59
2022/09/08 14:09:17;;;;;;;12.47;9.97;;;;;;;;;;752141;184;918843;-59
2022/09/08 14:12:10;;;;;;;;;;;;;;;;;;;;;
2022/09/08 14:14:46;;;;;;;21.93;7.73;;;;;;;;;;756736;183;919422;-59
2022/09/08 14:17:12;;;;;;;15.90;5.90;;;;;;;;;;750607;184;917546;-57
2022/09/08 14:19:49;;;;;;;11.83;5.20;;;;;;;;;;755548;184;922384;-57
2022/09/08 14:22:22;;;;;;;10.60;5.70;;;;;;;;;;752604;184;919944;-56
2022/09/08 14:24:50;;;;;;;12.47;5.37;;;;;;;;;;758504;184;917486;-55
2022/09/08 14:27:22;;;;;;;8.27;6.47;;;;;;;;;;748844;185;919460;-55
2022/09/08 14:29:50;;;;;;;8.80;6.70;;;;;;;;;;749950;185;920204;-55
2022/09/08 14:32:21;;;;;;;8.50;6.40;;;;;;;;;;753639;180;920131;-55